Moapa Valley, Nevada Weather observations

Data are for 10 minute period ending at time listed.
 Day   Time   Solar   Ave.   Ave.  Ave.  Vector  Max.   Baro.   Total    
  of    of     Rad.   Air    Rel.  Wind   Wind   Wind  Press.  Precip.   
Year   Day            Temp.  Hum.  Speed  Dir.   Gust                    
2014   (PST)  Kw/m2    F      %     mph   deg.    mph    mb.     in.     
-------------------------------------------------------------------------
 297   17:10   0.00   71.7    46    0.3   313     1.7   967.0    0.00 
 297   17:20   0.00   71.8    41    1.4   309     2.1   967.1    0.00 
 297   17:30   0.00   70.4    46    1.7   326     2.4   967.1    0.00 
 297   17:40   0.00   70.4    46    1.8   298     2.4   967.2    0.00 
 297   17:50   0.00   69.0    50    1.2   346     2.1   967.3    0.00 
 297   18:00   0.00   68.0    50    1.6   317     2.8   967.3    0.00 
 297   18:10   0.00   66.8    54    0.9   313     2.1   967.4    0.00 
 297   18:20   0.00   64.9    56    0.6   301     1.7   967.5    0.00 
 297   18:30   0.00   64.9    53    1.9   329     2.8   967.6    0.00 
 297   18:40   0.00   65.6    53    1.2     3     1.7   967.6    0.00 
 297   18:50   0.00   64.7    56    1.4     5     3.1   967.6    0.00 
 297   19:00   0.00   66.1    50    2.7   347     3.5   967.6    0.00 
 297   19:10   0.00   65.9    49    1.6   330     2.8   967.7    0.00 
 297   19:20   0.00   64.4    54    0.8   341     1.7   967.8    0.00 
 297   19:30   0.00   62.8    56    1.0   258     1.7   967.9    0.00 
 297   19:40   0.00   62.2    56    0.7   274     1.7   968.0    0.00 
 297   19:50   0.00   61.3    57    1.8   299     2.1   968.1    0.00 
 297   20:00   0.00   59.9    64    1.2   283     3.1   968.2    0.00 
 297   20:10   0.00   62.3    55    2.3   287     3.5   968.3    0.00 
 297   20:20   0.00   61.2    59    1.1   258     2.1   968.4    0.00 
 297   20:30   0.00   59.9    61    1.5   310     2.1   968.5    0.00 
 297   20:40   0.00   60.9    60    2.1   292     3.1   968.6    0.00 
 297   20:50   0.00   61.2    58    2.7   290     3.8   968.6    0.00 
 297   21:00   0.00   60.4    60    1.5    41     2.8   968.7    0.00 
 297   21:10   0.00   59.6    60    2.3   299     3.5   968.8    0.00 
 297   21:20   0.00   61.8    56    3.1   295     4.2   968.9    0.00 
 297   21:30   0.00   60.0    60    1.8     3     3.8   968.9    0.00 
 297   21:40   0.00   59.7    60    1.4    10     2.1   969.0    0.00 
 297   21:50   0.00   60.3    57    2.2   337     3.1   969.0    0.00 
 297   22:00   0.00   60.4    58    3.1   311     3.8   968.9    0.00 
 297   22:10   0.00   60.4    58    2.2   325     3.1   968.9    0.00 
 297   22:20   0.00   58.6    63    2.5   348     3.8   968.9    0.00 
 297   22:30   0.00   59.0    60    3.0   355     3.5   968.9    0.00 
 297   22:40   0.00   60.5    55    2.5   341     3.5   968.9    0.00 
 297   22:50   0.00   60.3    56    2.2   346     3.1   968.9    0.00 
 297   23:00   0.00   59.5    58    1.3   326     2.8   968.8    0.00 
 297   23:10   0.00   59.1    59    1.1   260     1.7   968.9    0.00 
 297   23:20   0.00   58.2    60    2.4   272     3.8   968.9    0.00 
 297   23:30   0.00   57.5    64    2.3   273     4.2   968.9    0.00 
 297   23:40   0.00   56.1    68    0.9   291     2.1   968.9    0.00 
 297   23:50   0.00   56.1    65    2.3   301     2.8   969.0    0.00 
 298    0:00   0.00   56.4    65    1.9     3     2.8   969.0    0.00 
 298    0:10   0.00   56.6    66    1.5   349     2.8   969.0    0.00 
 298    0:20   0.00   56.2    66    1.6   319     2.4   969.0    0.00 
 298    0:30   0.00   55.6    68    0.8   281     1.7   969.0    0.00 
 298    0:40   0.00   55.0    68    0.7     4     1.3   969.1    0.00 
 298    0:50   0.00   56.2    67    0.4    14     1.3   969.1    0.00 
 298    1:00   0.00   54.4    71    0.4   346     2.4   969.2    0.00 
 298    1:10   0.00   54.1    72    1.1   315     2.8   969.1    0.00 
 298    1:20   0.00   53.5    73    2.0   270     3.1   969.1    0.00 
 298    1:30   0.00   53.3    72    1.6   262     2.8   969.1    0.00 
 298    1:40   0.00   53.9    69    2.3   283     3.1   969.0    0.00 
 298    1:50   0.00   54.6    69    1.4   275     3.1   969.0    0.00 
 298    2:00   0.00   54.6    66    1.7   315     2.4   968.9    0.00 
 298    2:10   0.00   55.4    65    1.8   312     2.4   968.8    0.00 
 298    2:20   0.00   54.7    68    0.7   241     1.7   968.8    0.00 
 298    2:30   0.00   54.1    68    1.3   305     1.7   968.8    0.00 
 298    2:40   0.00   53.6    70    1.0   253     1.7   968.7    0.00 
 298    2:50   0.00   52.8    70    1.7   306     2.1   968.8    0.00 
 298    3:00   0.00   53.1    72    1.0   268     1.7   968.7    0.00 
 298    3:10   0.00   52.3    74    0.9   293     1.7   968.7    0.00 
 298    3:20   0.00   52.9    71    1.4   234     2.1   968.7    0.00 
 298    3:30   0.00   52.5    74    0.2    40     1.3   968.8    0.00 
 298    3:40   0.00   51.6    76    0.0   244     1.0   968.9    0.00 
 298    3:50   0.00   51.3    77    0.9   320     1.7   968.9    0.00 
 298    4:00   0.00   50.8    74    1.4   295     2.8   968.9    0.00 
 298    4:10   0.00   51.4    75    2.6   285     3.8   969.0    0.00 
 298    4:20   0.00   52.6    73    0.2   311     1.0   969.0    0.00 
 298    4:30   0.00   50.9    78    0.5   169     1.3   969.0    0.00 
 298    4:40   0.00   51.0    74    1.9   332     3.5   969.0    0.00 
 298    4:50   0.00   51.7    71    2.4   334     3.1   969.0    0.00 
 298    5:00   0.00   52.5    73    1.6   352     3.1   969.1    0.00 
 298    5:10   0.00   52.0    73    1.4   299     3.1   969.2    0.00 
 298    5:20   0.00   51.7    74    1.1     3     2.4   969.2    0.00 
 298    5:30   0.00   51.5    74    1.1   307     2.4   969.2    0.00 
 298    5:40   0.00   50.9    74    1.9   288     3.1   969.2    0.00 
 298    5:50   0.00   51.3    74    1.9   283     2.8   969.1    0.00 
 298    6:00   0.01   51.2    74    1.0   280     1.7   969.1    0.00 
 298    6:10   0.02   51.3    74    2.4   267     3.1   969.2    0.00 
 298    6:20   0.06   53.3    70    2.3   296     3.5   969.4    0.00 
 298    6:30   0.07   53.5    70    2.2     5     3.5   969.5    0.00 
 298    6:40   0.05   53.8    73    1.3   320     3.1   969.5    0.00 
 298    6:50   0.09   54.3    71    2.3   304     3.1   969.6    0.00 
 298    7:00   0.17   56.9    67    2.5   289     3.8   969.9    0.00 
 298    7:10   0.21   59.1    64    2.0   302     3.5   970.0    0.00 
 298    7:20   0.24   61.3    61    2.1   335     4.2   970.1    0.00 
 298    7:30   0.28   62.1    57    3.7   345     5.3   970.2    0.00 
 298    7:40   0.32   63.0    55    3.9   330     5.3   970.2    0.00 
 298    7:50   0.35   64.6    53    3.8   313     6.3   970.3    0.00 
 298    8:00   0.39   65.6    50    4.2   322     5.6   970.3    0.00 
 298    8:10   0.42   66.7    48    3.5   311     4.9   970.3    0.00 
 298    8:20   0.45   68.1    47    3.4   293     4.9   970.3    0.00 
 298    8:30   0.48   68.8    45    3.9   297     6.0   970.3    0.00 
 298    8:40   0.52   70.0    44    3.3   311     4.9   970.3    0.00 
 298    8:50   0.54   71.4    42    3.4   316     4.9   970.3    0.00 
 298    9:00   0.57   72.8    39    2.7   328     4.2   970.3    0.00 
 298    9:10   0.60   73.9    36    2.9   346     6.0   970.1    0.00 
 298    9:20   0.62   74.7    36    2.8   328     5.6   970.1    0.00 
 298    9:30   0.62   76.0    33    1.8   320     3.1   970.1    0.00 
 298    9:40   0.66   77.1    31    1.6    25     3.1   970.1    0.00 
 298    9:50   0.70   77.1    35    2.1   103     3.5   970.0    0.00 
 298   10:00   0.68   77.5    32    1.6   166     3.5   970.0    0.00 
 298   10:10   0.71   79.3    32    1.5   181     3.8   969.8    0.00 
 298   10:20   0.73   77.6    35    3.0   117     4.6   969.8    0.00 
 298   10:30   0.61   77.9    36    2.5   119     4.9   969.6    0.00 
 298   10:40   0.71   77.6    38    3.6   120     7.1   969.5    0.00 
 298   10:50   0.76   78.2    38    3.6   128     6.3   969.4    0.00 
 298   11:00   0.66   77.7    39    3.9   117     6.3   969.2    0.00 
 298   11:10   0.83   79.3    38    3.9   109     6.0   968.9    0.00 
 298   11:20   0.82   79.8    38    4.0   116     6.3   968.7    0.00 
 298   11:30   0.89   80.6    36    4.4   126     6.7   968.5    0.00 
 298   11:40   0.81   81.5    37    3.6   110     8.8   968.3    0.00 
 298   11:50   0.76   82.1    35    4.7   124     7.1   968.1    0.00 
 298   12:00   0.63   82.0    35    4.7   106     7.8   967.9    0.00 
 298   12:10   0.47   82.2    35    4.1   113     7.4   967.7    0.00 
 298   12:20   0.73   82.9    35    5.0   110     7.8   967.5    0.00 
 298   12:30   0.71   83.7    34    4.8   102     7.4   967.3    0.00 
 298   12:40   0.71   84.5    31    7.2   101    12.1   967.0    0.00 
 298   12:50   0.69   84.8    31    6.5   131    11.7   966.9    0.00 
 298   13:00   0.66   84.7    31    7.2   122    11.3   966.7    0.00 
 298   13:10   0.65   84.6    31    7.3   122    10.6   966.5    0.00 
 298   13:20   0.50   84.9    32    6.0   116     9.9   966.3    0.00 
 298   13:30   0.55   84.3    31    6.9   126    12.1   966.2    0.00 
 298   13:40   0.61   85.2    31    7.4   114    12.4   966.1    0.00 
 298   13:50   0.56   85.1    31    6.6   111    11.7   965.9    0.00 
 298   14:00   0.53   85.9    29    6.4   135    11.0   965.9    0.00 
 298   14:10   0.51   86.4    28    6.3   158    12.4   965.8    0.00 
 298   14:20   0.48   86.3    30    5.8   131    13.5   965.6    0.00 
 298   14:30   0.33   86.2    28    5.8   158     9.2   965.5    0.00 
 298   14:40   0.31   85.8    27    7.9   147    12.4   965.4    0.00 
 298   14:50   0.27   86.0    28    6.6   158    12.8   965.3    0.00 
 298   15:00   0.09   84.7    28    5.2   181     8.8   965.0    0.00 
 298   15:10   0.10   84.3    29    3.8   164     8.1   964.8    0.00 
 298   15:20   0.09   84.5    28    3.1   186     8.1   964.7    0.00 
 298   15:30   0.10   84.2    29    2.5   195     4.2   964.6    0.00 
 298   15:40   0.26   85.8    30    2.2   167     5.6   964.4    0.00 
 298   15:50   0.24   86.3    29    6.2   163    12.4   964.3    0.00 
 298   16:00   0.18   86.5    27    6.8   173    12.8   964.2    0.00 
 298   16:10   0.12   86.5    27    8.3   157    14.9   964.2    0.00 
 298   16:20   0.09   86.4    26    8.8   153    14.2   964.1    0.00 
 298   16:30   0.06   86.1    26    9.7   151    17.8   964.1    0.00 
 298   16:40   0.02   85.8    26    8.6   153    12.8   964.1    0.00 
 298   16:50   0.01   85.2    27    8.5   145    13.5   964.0    0.00 
 298   17:00   0.00   85.0    27    8.2   149    13.8   964.0    0.00 

Return to Moapa Valley graphs page.


Western Regional Climate Center,wrcc@dri.edu